createdAt,value
2018-10-19T00:00:29.406Z,74.60
2018-10-19T00:03:00.093Z,74.43
2018-10-19T00:05:30.712Z,74.25
2018-10-19T00:08:01.341Z,74.43
2018-10-19T00:10:31.999Z,74.83
2018-10-19T00:13:02.644Z,74.66
2018-10-19T00:15:33.307Z,75.07
2018-10-19T00:18:03.980Z,74.90
2018-10-19T00:20:34.634Z,74.90
2018-10-19T00:23:05.490Z,74.37
2018-10-19T00:25:36.118Z,74.37
2018-10-19T00:28:06.866Z,74.81
2018-10-19T00:30:37.514Z,74.54
2018-10-19T00:33:08.309Z,74.58
2018-10-19T00:35:38.921Z,74.72
2018-10-19T00:38:09.555Z,74.63
2018-10-19T00:40:40.245Z,75.09
2018-10-19T00:43:10.828Z,75.03
2018-10-19T00:45:45.503Z,75.09
2018-10-19T00:48:17.216Z,75.21
2018-10-19T00:50:47.896Z,75.40
2018-10-19T00:53:18.564Z,74.71
2018-10-19T00:55:49.215Z,75.35
2018-10-19T00:58:19.865Z,75.38
2018-10-19T01:00:50.504Z,75.56
2018-10-19T01:03:21.459Z,75.34
2018-10-19T01:05:52.123Z,75.38
2018-10-19T01:08:22.740Z,75.65
2018-10-19T01:10:53.488Z,75.46
2018-10-19T01:13:24.045Z,75.08
2018-10-19T01:15:54.674Z,75.16
2018-10-19T01:18:25.370Z,74.98
2018-10-19T01:20:56.090Z,74.67
2018-10-19T01:23:26.691Z,74.97
2018-10-19T01:25:57.325Z,77.83
2018-10-19T01:28:27.946Z,78.60
2018-10-19T01:30:58.607Z,77.02
2018-10-19T01:33:29.333Z,73.73
2018-10-19T01:36:00.141Z,73.10
2018-10-19T01:38:30.722Z,73.77
2018-10-19T01:41:01.477Z,73.48
2018-10-19T01:43:32.178Z,73.64
2018-10-19T01:46:02.844Z,73.73
2018-10-19T01:48:33.476Z,74.26
2018-10-19T01:51:04.143Z,74.50
2018-10-19T01:53:34.759Z,74.72
2018-10-19T01:56:05.629Z,74.81
2018-10-19T01:58:36.256Z,75.15
2018-10-19T02:01:06.928Z,75.27
2018-10-19T02:03:37.615Z,75.50
2018-10-19T02:06:08.295Z,75.50
2018-10-19T02:08:38.928Z,75.92
2018-10-19T02:11:09.617Z,75.81
2018-10-19T02:13:40.244Z,75.24
2018-10-19T02:16:10.925Z,75.63
2018-10-19T02:18:41.560Z,75.53
2018-10-19T02:21:12.264Z,75.25
2018-10-19T02:23:42.931Z,75.45
2018-10-19T02:26:13.626Z,75.61
2018-10-19T02:28:44.303Z,75.72
2018-10-19T02:31:14.963Z,75.42
2018-10-19T02:33:45.599Z,75.62
2018-10-19T02:36:16.296Z,75.49
2018-10-19T02:38:47.233Z,75.69
2018-10-19T02:41:17.950Z,75.54
2018-10-19T02:43:48.751Z,75.36
2018-10-19T02:46:19.381Z,75.23
2018-10-19T02:48:50.073Z,75.45
2018-10-19T02:51:20.731Z,75.51
2018-10-19T02:53:51.465Z,75.50
2018-10-19T02:56:22.115Z,75.38
2018-10-19T02:58:52.847Z,74.82
2018-10-19T03:01:23.476Z,74.94
2018-10-19T03:03:54.148Z,75.04
2018-10-19T03:06:24.832Z,75.42
2018-10-19T03:08:55.574Z,75.25
2018-10-19T03:11:26.211Z,75.31
2018-10-19T03:13:56.892Z,75.37
2018-10-19T03:16:27.572Z,74.69
2018-10-19T03:18:58.156Z,75.08
2018-10-19T03:21:28.829Z,74.81
2018-10-19T03:23:59.488Z,75.45
2018-10-19T03:26:30.191Z,75.12
2018-10-19T03:29:00.868Z,75.37
2018-10-19T03:31:31.519Z,75.13
2018-10-19T03:34:02.217Z,74.86
2018-10-19T03:36:32.867Z,75.05
2018-10-19T03:39:05.404Z,75.20
2018-10-19T03:41:36.070Z,75.69
2018-10-19T03:44:07.058Z,75.71
2018-10-19T03:46:37.723Z,76.15
2018-10-19T03:49:08.394Z,75.86
2018-10-19T03:51:39.721Z,75.93
2018-10-19T03:54:10.421Z,76.07
2018-10-19T03:56:41.391Z,76.27
2018-10-19T03:59:12.024Z,76.49
2018-10-19T04:01:42.635Z,76.54
2018-10-19T04:04:13.294Z,76.37
2018-10-19T04:06:44.058Z,76.11
2018-10-19T04:09:14.751Z,76.73
2018-10-19T04:11:45.389Z,77.10
2018-10-19T04:14:16.060Z,77.18
2018-10-19T04:16:46.755Z,76.70
2018-10-19T04:19:17.386Z,77.13
2018-10-19T04:21:48.054Z,76.94
2018-10-19T04:24:18.737Z,77.06
2018-10-19T04:27:20.001Z,77.35
2018-10-19T04:29:50.533Z,76.67
2018-10-19T04:32:21.205Z,76.78
2018-10-19T04:34:51.896Z,77.19
2018-10-19T04:37:22.579Z,76.98
2018-10-19T04:39:53.256Z,77.50
2018-10-19T04:42:23.979Z,76.96
2018-10-19T04:44:54.601Z,77.32
2018-10-19T04:47:25.324Z,77.00
2018-10-19T04:49:55.943Z,77.11
2018-10-19T04:52:26.548Z,76.94
2018-10-19T04:54:58.323Z,76.60
2018-10-19T04:57:29.367Z,76.64
2018-10-19T05:00:02.329Z,76.69
2018-10-19T05:02:32.996Z,76.56
2018-10-19T05:05:03.800Z,77.22
2018-10-19T05:07:34.471Z,77.20
2018-10-19T05:10:05.531Z,76.98
2018-10-19T05:12:36.361Z,76.96
2018-10-19T05:15:09.131Z,77.03
2018-10-19T05:17:39.788Z,77.08
2018-10-19T05:20:12.613Z,76.96
2018-10-19T05:22:43.232Z,76.66
2018-10-19T05:25:13.991Z,77.05
2018-10-19T05:27:44.694Z,76.81
2018-10-19T05:30:15.317Z,76.32
2018-10-19T05:32:45.972Z,76.22
2018-10-19T05:35:16.665Z,76.24
2018-10-19T05:37:47.279Z,76.68
2018-10-19T05:40:17.902Z,76.48
2018-10-19T05:42:48.607Z,76.97
2018-10-19T05:45:19.239Z,76.98
2018-10-19T05:47:49.864Z,77.09
2018-10-19T05:50:20.508Z,77.19
2018-10-19T05:52:51.148Z,77.00
2018-10-19T05:55:21.807Z,77.17
2018-10-19T05:57:52.488Z,77.12
2018-10-19T06:00:23.121Z,77.45
2018-10-19T06:02:53.729Z,77.41
2018-10-19T06:05:24.399Z,77.41
2018-10-19T06:07:55.117Z,77.77
2018-10-19T06:10:25.772Z,77.46
2018-10-19T06:12:56.452Z,76.91
2018-10-19T06:15:27.120Z,76.92
2018-10-19T06:17:57.747Z,77.08
2018-10-19T06:20:28.421Z,76.84
2018-10-19T06:22:59.083Z,76.36
2018-10-19T06:25:29.740Z,76.10
2018-10-19T06:28:00.443Z,77.07
2018-10-19T06:30:31.108Z,77.21
2018-10-19T06:33:01.845Z,76.99
2018-10-19T06:35:32.452Z,76.72
2018-10-19T06:38:03.091Z,76.30
2018-10-19T06:40:33.807Z,76.37
2018-10-19T06:43:04.396Z,75.83
2018-10-19T06:45:35.081Z,75.39
2018-10-19T06:48:06.433Z,75.12
2018-10-19T06:50:37.041Z,75.28
2018-10-19T06:53:07.867Z,75.13
2018-10-19T06:55:38.458Z,75.89
2018-10-19T06:58:09.127Z,75.52
2018-10-19T07:00:39.750Z,75.60
2018-10-19T07:03:10.455Z,76.09
2018-10-19T07:05:41.210Z,75.72
2018-10-19T07:08:11.880Z,75.56
2018-10-19T07:10:42.557Z,75.03
2018-10-19T07:13:13.198Z,75.51
2018-10-19T07:15:43.885Z,75.67
2018-10-19T07:18:14.654Z,75.21
2018-10-19T07:20:45.323Z,75.54
2018-10-19T07:23:16.051Z,76.06
2018-10-19T07:25:46.737Z,76.09
2018-10-19T07:28:17.414Z,74.94
2018-10-19T07:30:48.042Z,75.25
2018-10-19T07:33:18.684Z,75.47
2018-10-19T07:35:49.335Z,75.68
2018-10-19T07:38:20.879Z,75.42
2018-10-19T07:40:51.519Z,75.25
2018-10-19T07:43:22.162Z,75.24
2018-10-19T07:45:52.871Z,74.94
2018-10-19T07:48:23.539Z,74.77
2018-10-19T07:50:54.443Z,74.80
2018-10-19T07:53:25.279Z,74.24
2018-10-19T07:55:55.921Z,74.42
2018-10-19T07:58:26.587Z,74.39
2018-10-19T08:00:57.333Z,74.24
2018-10-19T08:03:27.936Z,73.93
2018-10-19T08:05:58.622Z,74.23
2018-10-19T08:08:29.281Z,73.77
2018-10-19T08:11:00.041Z,73.59
2018-10-19T08:13:30.622Z,73.24
2018-10-19T08:16:01.237Z,73.40
2018-10-19T08:18:31.958Z,74.03
2018-10-19T08:21:02.682Z,74.37
2018-10-19T08:23:33.296Z,74.13
2018-10-19T08:26:04.231Z,74.14
2018-10-19T08:28:34.922Z,74.18
2018-10-19T08:31:05.833Z,74.98
2018-10-19T08:33:36.485Z,74.48
2018-10-19T08:36:07.180Z,74.47
2018-10-19T08:38:37.840Z,73.83
2018-10-19T08:41:08.566Z,73.91
2018-10-19T08:43:39.155Z,74.33
2018-10-19T08:46:14.990Z,73.65
2018-10-19T08:48:45.706Z,73.67
2018-10-19T08:51:16.352Z,73.61
2018-10-19T08:53:47.149Z,74.05
2018-10-19T08:56:17.790Z,73.69
2018-10-19T08:58:54.628Z,73.16
2018-10-19T09:01:26.031Z,73.36
2018-10-19T09:03:56.665Z,72.89
2018-10-19T09:06:27.354Z,72.91
2018-10-19T09:08:58.064Z,73.47
2018-10-19T09:11:28.715Z,74.05
2018-10-19T09:13:59.340Z,74.12
2018-10-19T09:16:29.979Z,73.76
2018-10-19T09:19:00.576Z,72.92
2018-10-19T09:21:31.225Z,72.14
2018-10-19T09:24:01.840Z,72.75
2018-10-19T09:26:32.556Z,72.97
2018-10-19T09:29:03.358Z,72.35
2018-10-19T09:31:34.079Z,72.84
2018-10-19T09:34:04.772Z,72.46
2018-10-19T09:36:35.488Z,72.40
2018-10-19T09:39:10.227Z,72.89
2018-10-19T09:41:41.941Z,73.18
2018-10-19T09:44:43.197Z,72.14
2018-10-19T09:47:13.946Z,72.55
2018-10-19T09:49:44.553Z,72.26
2018-10-19T09:52:15.259Z,71.87
2018-10-19T09:54:45.957Z,71.48
2018-10-19T09:57:16.829Z,70.87
2018-10-19T09:59:47.454Z,69.83
2018-10-19T10:02:18.171Z,69.56
2018-10-19T10:04:48.830Z,69.91
2018-10-19T10:07:19.569Z,70.31
2018-10-19T10:09:50.359Z,69.80
2018-10-19T10:12:21.063Z,69.33
2018-10-19T10:14:51.757Z,69.25
2018-10-19T10:17:22.431Z,69.69
2018-10-19T10:19:53.092Z,69.62
2018-10-19T10:22:23.757Z,68.92
2018-10-19T10:24:54.586Z,68.28
2018-10-19T10:27:25.017Z,67.49
2018-10-19T10:29:55.687Z,67.82
2018-10-19T10:32:26.386Z,67.70
2018-10-19T10:34:57.019Z,67.58
2018-10-19T10:37:27.703Z,66.96
2018-10-19T10:39:58.388Z,66.19
2018-10-19T10:42:28.994Z,66.15
2018-10-19T10:44:59.882Z,66.51
2018-10-19T10:47:30.615Z,65.77
2018-10-19T10:50:01.277Z,64.91
2018-10-19T10:52:31.965Z,63.86
2018-10-19T10:55:02.780Z,63.24
2018-10-19T10:57:33.450Z,60.41
2018-10-19T11:00:04.186Z,58.64
2018-10-19T11:02:34.902Z,57.08
2018-10-19T11:05:06.418Z,55.39
2018-10-19T11:07:37.230Z,52.85
2018-10-19T11:10:09.342Z,51.94
2018-10-19T11:12:39.979Z,49.48
2018-10-19T11:15:10.732Z,48.75
2018-10-19T11:17:41.416Z,48.31
2018-10-19T11:20:12.148Z,46.54
2018-10-19T11:22:42.844Z,46.24
2018-10-19T11:25:13.594Z,45.15
2018-10-19T11:27:44.192Z,45.72
2018-10-19T11:30:14.899Z,45.59
2018-10-19T11:32:45.584Z,45.10
2018-10-19T11:35:16.270Z,43.33
2018-10-19T11:37:46.999Z,41.62
2018-10-19T11:40:34.268Z,41.71
2018-10-19T11:43:05.289Z,40.20
2018-10-19T11:45:36.961Z,39.42
2018-10-19T11:48:07.642Z,38.61
2018-10-19T11:50:38.312Z,39.06
2018-10-19T11:53:08.893Z,39.83
2018-10-19T11:55:39.614Z,40.11
2018-10-19T11:58:10.298Z,39.28
2018-10-19T12:00:40.949Z,38.74
2018-10-19T12:03:11.713Z,38.41
2018-10-19T12:05:42.350Z,37.50
2018-10-19T12:08:12.923Z,36.83
2018-10-19T12:10:43.633Z,36.03
2018-10-19T12:13:14.303Z,37.33
2018-10-19T12:15:44.933Z,37.00
2018-10-19T12:18:15.521Z,36.48
2018-10-19T12:20:46.201Z,36.38
2018-10-19T12:23:16.813Z,35.95
2018-10-19T12:25:47.488Z,35.92
2018-10-19T12:28:18.164Z,35.65
2018-10-19T12:30:48.809Z,35.13
2018-10-19T12:33:19.458Z,34.69
2018-10-19T12:35:50.105Z,34.54
2018-10-19T12:38:20.813Z,35.64
2018-10-19T12:40:51.474Z,35.54
2018-10-19T12:43:22.584Z,35.38
2018-10-19T12:46:42.508Z,35.26
2018-10-19T12:49:14.645Z,34.42
2018-10-19T12:51:45.368Z,34.17
2018-10-19T12:54:16.116Z,34.40
2018-10-19T12:56:46.751Z,33.77
2018-10-19T12:59:17.451Z,33.37
2018-10-19T13:01:48.070Z,33.06
2018-10-19T13:04:18.728Z,32.99
2018-10-19T13:06:49.348Z,33.81
2018-10-19T13:09:20.076Z,32.95
2018-10-19T13:11:50.866Z,32.46
2018-10-19T13:14:21.512Z,32.86
2018-10-19T13:16:52.171Z,32.53
2018-10-19T13:19:23.072Z,32.07
2018-10-19T13:21:53.678Z,32.72
2018-10-19T13:24:24.692Z,32.80
2018-10-19T13:26:55.390Z,32.83
2018-10-19T13:29:26.036Z,32.17
2018-10-19T13:31:56.671Z,32.09
2018-10-19T13:34:27.561Z,33.07
2018-10-19T13:36:58.152Z,34.51
2018-10-19T13:39:28.923Z,34.52
2018-10-19T13:41:59.624Z,35.83
2018-10-19T13:44:30.292Z,36.63
2018-10-19T13:47:01.021Z,36.84
2018-10-19T13:49:31.656Z,38.18
2018-10-19T13:52:02.286Z,38.49
2018-10-19T13:54:33.001Z,38.67
2018-10-19T13:57:03.684Z,38.92
2018-10-19T13:59:34.292Z,39.78
2018-10-19T14:02:05.295Z,40.53
2018-10-19T14:04:35.967Z,41.12
2018-10-19T14:07:06.664Z,41.93
2018-10-19T14:09:37.311Z,43.21
2018-10-19T14:12:08.020Z,44.09
2018-10-19T14:14:38.638Z,44.81
2018-10-19T14:17:09.300Z,45.12
2018-10-19T14:19:39.993Z,45.76
2018-10-19T14:22:10.659Z,46.92
2018-10-19T14:24:41.359Z,47.47
2018-10-19T14:27:12.097Z,47.98
2018-10-19T14:29:42.747Z,48.30
2018-10-19T14:32:13.458Z,49.33
2018-10-19T14:34:44.186Z,49.24
2018-10-19T14:37:14.918Z,49.67
2018-10-19T14:39:45.612Z,50.10
2018-10-19T14:42:16.337Z,50.32
2018-10-19T14:44:47.039Z,50.16
2018-10-19T14:47:17.809Z,50.20
2018-10-19T14:49:48.467Z,49.95
2018-10-19T14:52:19.206Z,49.68
2018-10-19T14:54:50.071Z,50.82
2018-10-19T14:57:20.753Z,50.79
2018-10-19T14:59:51.433Z,50.68
2018-10-19T15:02:22.272Z,51.00
2018-10-19T15:04:52.935Z,50.98
2018-10-19T15:07:23.659Z,51.15
2018-10-19T15:09:54.409Z,51.22
2018-10-19T15:12:25.023Z,51.67
2018-10-19T15:14:55.657Z,51.49
2018-10-19T15:17:26.284Z,51.46
2018-10-19T15:19:56.927Z,52.19
2018-10-19T15:22:27.624Z,52.64
2018-10-19T15:24:58.699Z,52.52
2018-10-19T15:27:29.377Z,52.40
2018-10-19T15:30:00.087Z,53.20
2018-10-19T15:32:30.712Z,53.39
2018-10-19T15:35:01.381Z,54.12
2018-10-19T15:37:32.006Z,54.01
2018-10-19T15:40:02.664Z,54.12
2018-10-19T15:42:33.303Z,54.32
2018-10-19T15:45:04.206Z,54.34
2018-10-19T15:47:34.852Z,54.89
2018-10-19T15:50:05.938Z,55.20
2018-10-19T15:52:36.640Z,55.01
2018-10-19T15:55:07.937Z,55.43
2018-10-19T15:57:38.585Z,55.33
2018-10-19T16:00:11.082Z,56.00
2018-10-19T16:02:41.663Z,56.13
2018-10-19T16:05:12.344Z,56.15
2018-10-19T16:07:43.029Z,56.51
2018-10-19T16:10:13.685Z,56.59
2018-10-19T16:12:44.363Z,56.93
2018-10-19T16:15:15.021Z,56.84
2018-10-19T16:17:45.698Z,57.02
2018-10-19T16:20:16.264Z,57.61
2018-10-19T16:22:47.024Z,57.55
2018-10-19T16:25:17.744Z,58.08
2018-10-19T16:27:48.389Z,57.70
2018-10-19T16:30:19.141Z,57.90
2018-10-19T16:32:49.778Z,58.04
2018-10-19T16:35:20.438Z,58.06
2018-10-19T16:37:51.104Z,57.75
2018-10-19T16:40:21.881Z,58.45
2018-10-19T16:42:52.578Z,58.44
2018-10-19T16:45:23.274Z,58.72
2018-10-19T16:47:54.012Z,58.64
2018-10-19T16:50:24.921Z,58.72
2018-10-19T16:52:55.682Z,58.88
2018-10-19T16:55:27.211Z,59.03
2018-10-19T16:57:57.904Z,58.98
2018-10-19T17:00:28.604Z,59.44
2018-10-19T17:02:59.344Z,59.35
2018-10-19T17:05:29.929Z,59.80
2018-10-19T17:08:00.555Z,59.66
2018-10-19T17:10:31.255Z,60.13
2018-10-19T17:13:01.879Z,60.17
2018-10-19T17:15:32.533Z,60.46
2018-10-19T17:18:03.264Z,60.53
2018-10-19T17:20:33.915Z,60.42
2018-10-19T17:23:04.591Z,60.43
2018-10-19T17:25:35.258Z,60.91
2018-10-19T17:28:06.600Z,60.84
2018-10-19T17:30:37.303Z,60.89
2018-10-19T17:33:07.991Z,61.25
2018-10-19T17:35:38.692Z,61.09
2018-10-19T17:38:09.297Z,60.94
2018-10-19T17:40:44.846Z,60.66
2018-10-19T17:43:17.289Z,60.82
2018-10-19T17:45:48.959Z,61.36
2018-10-19T17:48:19.582Z,61.11
2018-10-19T17:50:50.470Z,61.10
2018-10-19T17:53:21.182Z,61.25
2018-10-19T17:55:51.922Z,61.48
2018-10-19T17:58:24.107Z,61.33
2018-10-19T18:00:54.842Z,61.53
2018-10-19T18:03:26.505Z,62.34
2018-10-19T18:05:57.299Z,62.63
2018-10-19T18:08:27.939Z,62.47
2018-10-19T18:10:59.907Z,62.78
2018-10-19T18:13:30.571Z,62.74
2018-10-19T18:16:01.692Z,62.73
2018-10-19T18:18:32.393Z,63.01
2018-10-19T18:21:03.614Z,62.73
2018-10-19T18:23:34.278Z,62.81
2018-10-19T18:26:04.931Z,62.93
2018-10-19T18:28:35.526Z,63.32
2018-10-19T18:31:07.181Z,63.37
2018-10-19T18:33:37.848Z,63.52
2018-10-19T18:36:08.889Z,63.54
2018-10-19T18:38:39.579Z,63.68
2018-10-19T18:41:10.428Z,63.85
2018-10-19T18:43:41.008Z,64.29
2018-10-19T18:46:11.820Z,64.41
2018-10-19T18:48:42.484Z,64.39
2018-10-19T18:51:13.193Z,64.53
2018-10-19T18:53:43.812Z,64.79
2018-10-19T18:56:14.539Z,64.79
2018-10-19T18:58:45.285Z,64.65
2018-10-19T19:01:15.968Z,65.43
2018-10-19T19:03:46.585Z,65.40
2018-10-19T19:06:17.371Z,65.33
2018-10-19T19:08:48.122Z,65.48
2018-10-19T19:11:18.828Z,65.68
2018-10-19T19:13:50.383Z,66.00
2018-10-19T19:16:26.201Z,65.94
2018-10-19T19:18:56.868Z,66.17
2018-10-19T19:21:27.713Z,66.01
2018-10-19T19:24:03.331Z,66.40
2018-10-19T19:26:34.024Z,66.42
2018-10-19T19:29:04.734Z,66.40
2018-10-19T19:31:35.367Z,66.69
2018-10-19T19:34:11.348Z,66.64
2018-10-19T19:36:42.225Z,65.73
2018-10-19T19:39:12.902Z,66.11
2018-10-19T19:41:48.656Z,66.68
2018-10-19T19:44:19.343Z,66.95
2018-10-19T19:46:50.118Z,66.69
2018-10-19T19:49:25.959Z,66.50
2018-10-19T19:51:56.540Z,65.50
2018-10-19T19:54:27.167Z,64.98
2018-10-19T19:56:57.835Z,65.67
2018-10-19T19:59:28.470Z,65.22
2018-10-19T20:01:59.107Z,65.93
2018-10-19T20:04:29.710Z,65.01
2018-10-19T20:07:00.396Z,65.24
2018-10-19T20:09:31.043Z,66.11
2018-10-19T20:12:01.717Z,65.03
2018-10-19T20:14:32.322Z,65.66
2018-10-19T20:17:03.014Z,65.76
2018-10-19T20:19:33.600Z,65.55
2018-10-19T20:22:04.315Z,65.22
2018-10-19T20:24:35.153Z,65.95
2018-10-19T20:27:06.021Z,65.78
2018-10-19T20:29:36.603Z,65.79
2018-10-19T20:32:07.362Z,66.34
2018-10-19T20:34:37.953Z,66.23
2018-10-19T20:37:08.602Z,66.70
2018-10-19T20:39:39.328Z,66.64
2018-10-19T20:42:10.021Z,66.46
2018-10-19T20:44:40.811Z,66.33
2018-10-19T20:47:11.519Z,66.92
2018-10-19T20:49:42.142Z,67.23
2018-10-19T20:52:12.841Z,66.95
2018-10-19T20:54:43.533Z,66.83
2018-10-19T20:57:14.198Z,66.53
2018-10-19T20:59:44.864Z,67.08
2018-10-19T21:02:15.602Z,66.77
2018-10-19T21:04:46.275Z,66.60
2018-10-19T21:07:16.933Z,66.52
2018-10-19T21:09:47.707Z,66.87
2018-10-19T21:12:18.568Z,67.21
2018-10-19T21:14:49.303Z,67.54
2018-10-19T21:17:19.987Z,68.04
2018-10-19T21:19:50.601Z,67.81
2018-10-19T21:22:21.192Z,68.06
2018-10-19T21:24:51.848Z,67.92
2018-10-19T21:27:22.445Z,67.83
2018-10-19T21:29:53.223Z,68.28
2018-10-19T21:32:23.835Z,68.40
2018-10-19T21:34:54.466Z,68.59
2018-10-19T21:37:25.117Z,68.76
2018-10-19T21:39:55.784Z,68.68
2018-10-19T21:42:26.532Z,68.65
2018-10-19T21:44:57.131Z,68.50
2018-10-19T21:47:28.013Z,68.45
2018-10-19T21:49:58.786Z,68.54
2018-10-19T21:52:29.470Z,68.73
2018-10-19T21:55:00.114Z,68.60
2018-10-19T21:57:30.767Z,68.42
2018-10-19T22:00:01.436Z,68.52
2018-10-19T22:02:32.067Z,68.37
2018-10-19T22:05:02.779Z,68.28
2018-10-19T22:07:33.464Z,68.54
2018-10-19T22:10:04.162Z,68.81
2018-10-19T22:12:34.945Z,68.79
2018-10-19T22:15:06.523Z,68.98
2018-10-19T22:17:37.214Z,68.97
2018-10-19T22:20:08.504Z,69.40
2018-10-19T22:22:39.157Z,69.54
2018-10-19T22:25:09.905Z,69.18
2018-10-19T22:27:40.474Z,69.61
2018-10-19T22:30:11.186Z,69.80
2018-10-19T22:32:41.803Z,69.92
2018-10-19T22:35:12.539Z,69.88
2018-10-19T22:37:43.126Z,69.92
2018-10-19T22:40:13.850Z,70.10
2018-10-19T22:42:44.519Z,69.98
2018-10-19T22:45:15.126Z,70.19
2018-10-19T22:47:45.780Z,70.65
2018-10-19T22:50:16.400Z,70.36
2018-10-19T22:52:47.025Z,69.99
2018-10-19T22:55:17.726Z,69.63
2018-10-19T22:57:48.436Z,69.69
2018-10-19T23:00:19.095Z,70.60
2018-10-19T23:02:49.756Z,70.31
2018-10-19T23:05:20.473Z,70.09
2018-10-19T23:07:51.147Z,70.13
2018-10-19T23:10:21.799Z,69.90
2018-10-19T23:12:52.480Z,69.83
2018-10-19T23:15:23.092Z,70.27
2018-10-19T23:17:53.742Z,70.33
2018-10-19T23:20:24.371Z,70.68
2018-10-19T23:22:55.070Z,70.45
2018-10-19T23:25:25.664Z,70.83
2018-10-19T23:27:56.318Z,70.98
2018-10-19T23:30:27.014Z,70.72
2018-10-19T23:32:57.650Z,70.65
2018-10-19T23:35:28.324Z,71.33
2018-10-19T23:37:58.952Z,71.61
2018-10-19T23:40:29.621Z,70.92
2018-10-19T23:43:00.308Z,71.00
2018-10-19T23:45:30.966Z,71.35
2018-10-19T23:48:01.635Z,71.14
2018-10-19T23:50:32.308Z,71.27
2018-10-19T23:53:02.950Z,71.43
2018-10-19T23:55:33.628Z,71.92
2018-10-19T23:58:04.547Z,72.70
